sensor_id;sensor_type;location;lat;lon;timestamp;P1;durP1;ratioP1;P2;durP2;ratioP2
83143;SDS011;73035;43.768;2.230;2023-11-19T00:00:48;5.05;;;2.33;;
83143;SDS011;73035;43.768;2.230;2023-11-19T00:03:14;4.03;;;2.78;;
83143;SDS011;73035;43.768;2.230;2023-11-19T00:05:39;4.32;;;2.10;;
83143;SDS011;73035;43.768;2.230;2023-11-19T00:08:04;3.72;;;1.77;;
83143;SDS011;73035;43.768;2.230;2023-11-19T00:10:31;4.97;;;2.17;;
83143;SDS011;73035;43.768;2.230;2023-11-19T00:12:56;5.20;;;1.90;;
83143;SDS011;73035;43.768;2.230;2023-11-19T00:15:22;4.10;;;1.95;;
83143;SDS011;73035;43.768;2.230;2023-11-19T00:17:49;4.15;;;2.10;;
83143;SDS011;73035;43.768;2.230;2023-11-19T00:20:15;4.35;;;2.28;;
83143;SDS011;73035;43.768;2.230;2023-11-19T00:22:42;5.10;;;1.98;;
83143;SDS011;73035;43.768;2.230;2023-11-19T00:25:08;4.43;;;2.67;;
83143;SDS011;73035;43.768;2.230;2023-11-19T00:29:59;4.30;;;2.60;;
83143;SDS011;73035;43.768;2.230;2023-11-19T00:32:24;13.13;;;3.35;;
83143;SDS011;73035;43.768;2.230;2023-11-19T00:34:49;5.18;;;2.03;;
83143;SDS011;73035;43.768;2.230;2023-11-19T00:37:15;3.95;;;2.47;;
83143;SDS011;73035;43.768;2.230;2023-11-19T00:39:41;3.92;;;2.00;;
83143;SDS011;73035;43.768;2.230;2023-11-19T00:42:06;3.47;;;2.53;;
83143;SDS011;73035;43.768;2.230;2023-11-19T00:44:32;4.03;;;1.92;;
83143;SDS011;73035;43.768;2.230;2023-11-19T00:46:57;2.47;;;1.45;;
83143;SDS011;73035;43.768;2.230;2023-11-19T00:49:24;3.80;;;1.60;;
83143;SDS011;73035;43.768;2.230;2023-11-19T00:51:50;4.18;;;1.58;;
83143;SDS011;73035;43.768;2.230;2023-11-19T00:54:15;2.10;;;1.38;;
83143;SDS011;73035;43.768;2.230;2023-11-19T00:56:40;4.85;;;2.83;;
83143;SDS011;73035;43.768;2.230;2023-11-19T00:59:06;4.13;;;1.38;;
83143;SDS011;73035;43.768;2.230;2023-11-19T01:01:31;4.13;;;1.52;;
83143;SDS011;73035;43.768;2.230;2023-11-19T01:03:56;2.50;;;1.65;;
83143;SDS011;73035;43.768;2.230;2023-11-19T01:06:28;6.47;;;3.65;;
83143;SDS011;73035;43.768;2.230;2023-11-19T01:08:53;5.35;;;3.40;;
83143;SDS011;73035;43.768;2.230;2023-11-19T01:11:20;3.90;;;2.20;;
83143;SDS011;73035;43.768;2.230;2023-11-19T01:13:46;4.70;;;3.45;;
83143;SDS011;73035;43.768;2.230;2023-11-19T01:16:12;6.25;;;2.53;;
83143;SDS011;73035;43.768;2.230;2023-11-19T01:18:38;3.25;;;2.05;;
83143;SDS011;73035;43.768;2.230;2023-11-19T01:21:04;4.10;;;2.92;;
83143;SDS011;73035;43.768;2.230;2023-11-19T01:25:55;3.87;;;2.43;;
83143;SDS011;73035;43.768;2.230;2023-11-19T01:28:20;7.22;;;2.70;;
83143;SDS011;73035;43.768;2.230;2023-11-19T01:30:46;4.80;;;1.92;;
83143;SDS011;73035;43.768;2.230;2023-11-19T01:33:11;3.95;;;2.63;;
83143;SDS011;73035;43.768;2.230;2023-11-19T01:35:36;5.53;;;3.05;;
83143;SDS011;73035;43.768;2.230;2023-11-19T01:38:01;5.15;;;3.42;;
83143;SDS011;73035;43.768;2.230;2023-11-19T01:40:27;5.93;;;4.03;;
83143;SDS011;73035;43.768;2.230;2023-11-19T01:42:52;4.28;;;2.92;;
83143;SDS011;73035;43.768;2.230;2023-11-19T01:45:26;5.15;;;2.10;;
83143;SDS011;73035;43.768;2.230;2023-11-19T01:47:56;12.30;;;6.78;;
83143;SDS011;73035;43.768;2.230;2023-11-19T01:50:25;10.80;;;6.07;;
83143;SDS011;73035;43.768;2.230;2023-11-19T01:52:52;10.10;;;5.00;;
83143;SDS011;73035;43.768;2.230;2023-11-19T01:55:18;6.93;;;4.05;;
83143;SDS011;73035;43.768;2.230;2023-11-19T01:57:45;10.25;;;6.28;;
83143;SDS011;73035;43.768;2.230;2023-11-19T02:00:11;8.38;;;3.78;;
83143;SDS011;73035;43.768;2.230;2023-11-19T02:02:37;5.07;;;2.90;;
83143;SDS011;73035;43.768;2.230;2023-11-19T02:05:04;5.40;;;1.90;;
83143;SDS011;73035;43.768;2.230;2023-11-19T02:07:30;5.45;;;2.42;;
83143;SDS011;73035;43.768;2.230;2023-11-19T02:09:56;20.95;;;13.95;;
83143;SDS011;73035;43.768;2.230;2023-11-19T02:12:24;8.15;;;4.88;;
83143;SDS011;73035;43.768;2.230;2023-11-19T02:14:49;9.13;;;3.40;;
83143;SDS011;73035;43.768;2.230;2023-11-19T02:17:30;5.70;;;3.13;;
83143;SDS011;73035;43.768;2.230;2023-11-19T02:19:57;6.70;;;4.57;;
83143;SDS011;73035;43.768;2.230;2023-11-19T02:22:23;6.00;;;3.92;;
83143;SDS011;73035;43.768;2.230;2023-11-19T02:24:49;6.25;;;2.75;;
83143;SDS011;73035;43.768;2.230;2023-11-19T02:27:29;6.90;;;2.83;;
83143;SDS011;73035;43.768;2.230;2023-11-19T02:30:03;3.42;;;1.90;;
83143;SDS011;73035;43.768;2.230;2023-11-19T02:32:31;3.90;;;1.70;;
83143;SDS011;73035;43.768;2.230;2023-11-19T02:34:56;3.42;;;1.95;;
83143;SDS011;73035;43.768;2.230;2023-11-19T02:37:21;3.22;;;2.05;;
83143;SDS011;73035;43.768;2.230;2023-11-19T02:39:47;3.17;;;1.85;;
83143;SDS011;73035;43.768;2.230;2023-11-19T02:42:12;2.35;;;1.50;;
83143;SDS011;73035;43.768;2.230;2023-11-19T02:44:38;2.45;;;1.30;;
83143;SDS011;73035;43.768;2.230;2023-11-19T02:47:05;5.45;;;2.28;;
83143;SDS011;73035;43.768;2.230;2023-11-19T02:49:32;6.95;;;3.08;;
83143;SDS011;73035;43.768;2.230;2023-11-19T02:51:57;3.60;;;2.13;;
83143;SDS011;73035;43.768;2.230;2023-11-19T02:54:24;3.08;;;1.67;;
83143;SDS011;73035;43.768;2.230;2023-11-19T02:56:52;1.98;;;1.50;;
83143;SDS011;73035;43.768;2.230;2023-11-19T02:59:24;4.07;;;2.30;;
83143;SDS011;73035;43.768;2.230;2023-11-19T03:01:53;4.18;;;2.10;;
83143;SDS011;73035;43.768;2.230;2023-11-19T03:04:20;4.68;;;2.80;;
83143;SDS011;73035;43.768;2.230;2023-11-19T03:06:45;5.50;;;2.67;;
83143;SDS011;73035;43.768;2.230;2023-11-19T03:11:37;4.27;;;2.10;;
83143;SDS011;73035;43.768;2.230;2023-11-19T03:14:02;2.50;;;1.42;;
83143;SDS011;73035;43.768;2.230;2023-11-19T03:16:28;2.83;;;1.70;;
83143;SDS011;73035;43.768;2.230;2023-11-19T03:18:54;2.55;;;1.58;;
83143;SDS011;73035;43.768;2.230;2023-11-19T03:21:26;6.65;;;2.20;;
83143;SDS011;73035;43.768;2.230;2023-11-19T03:23:52;3.40;;;1.80;;
83143;SDS011;73035;43.768;2.230;2023-11-19T03:26:18;13.25;;;7.60;;
83143;SDS011;73035;43.768;2.230;2023-11-19T03:28:43;6.93;;;4.25;;
83143;SDS011;73035;43.768;2.230;2023-11-19T03:31:08;2.85;;;2.20;;
83143;SDS011;73035;43.768;2.230;2023-11-19T03:33:33;5.43;;;2.05;;
83143;SDS011;73035;43.768;2.230;2023-11-19T03:35:59;4.00;;;2.70;;
83143;SDS011;73035;43.768;2.230;2023-11-19T03:38:24;3.63;;;1.75;;
83143;SDS011;73035;43.768;2.230;2023-11-19T03:40:50;3.05;;;1.27;;
83143;SDS011;73035;43.768;2.230;2023-11-19T03:43:16;3.83;;;2.03;;
83143;SDS011;73035;43.768;2.230;2023-11-19T03:45:41;3.65;;;2.00;;
83143;SDS011;73035;43.768;2.230;2023-11-19T03:48:07;3.65;;;1.88;;
83143;SDS011;73035;43.768;2.230;2023-11-19T03:50:32;3.92;;;1.98;;
83143;SDS011;73035;43.768;2.230;2023-11-19T03:55:23;4.03;;;1.53;;
83143;SDS011;73035;43.768;2.230;2023-11-19T03:57:49;2.55;;;1.50;;
83143;SDS011;73035;43.768;2.230;2023-11-19T04:00:14;2.65;;;1.30;;
83143;SDS011;73035;43.768;2.230;2023-11-19T04:02:41;2.60;;;1.58;;
83143;SDS011;73035;43.768;2.230;2023-11-19T04:05:06;2.55;;;1.50;;
83143;SDS011;73035;43.768;2.230;2023-11-19T04:07:32;2.63;;;1.33;;
83143;SDS011;73035;43.768;2.230;2023-11-19T04:09:58;2.72;;;1.48;;
83143;SDS011;73035;43.768;2.230;2023-11-19T04:12:24;3.33;;;1.30;;
83143;SDS011;73035;43.768;2.230;2023-11-19T04:14:49;3.75;;;1.92;;
83143;SDS011;73035;43.768;2.230;2023-11-19T04:17:14;6.00;;;3.42;;
83143;SDS011;73035;43.768;2.230;2023-11-19T04:19:40;4.20;;;3.00;;
83143;SDS011;73035;43.768;2.230;2023-11-19T04:24:34;4.18;;;1.73;;
83143;SDS011;73035;43.768;2.230;2023-11-19T04:27:00;3.53;;;2.05;;
83143;SDS011;73035;43.768;2.230;2023-11-19T04:29:25;5.90;;;2.38;;
83143;SDS011;73035;43.768;2.230;2023-11-19T04:31:50;4.18;;;2.15;;
83143;SDS011;73035;43.768;2.230;2023-11-19T04:34:16;4.05;;;2.13;;
83143;SDS011;73035;43.768;2.230;2023-11-19T04:36:41;4.32;;;2.10;;
83143;SDS011;73035;43.768;2.230;2023-11-19T04:39:07;2.97;;;1.60;;
83143;SDS011;73035;43.768;2.230;2023-11-19T04:41:49;2.58;;;1.40;;
83143;SDS011;73035;43.768;2.230;2023-11-19T04:44:18;3.10;;;1.35;;
83143;SDS011;73035;43.768;2.230;2023-11-19T04:46:43;1.75;;;1.38;;
83143;SDS011;73035;43.768;2.230;2023-11-19T04:49:10;3.50;;;1.80;;
83143;SDS011;73035;43.768;2.230;2023-11-19T04:51:39;5.03;;;1.73;;
83143;SDS011;73035;43.768;2.230;2023-11-19T04:54:08;2.47;;;1.40;;
83143;SDS011;73035;43.768;2.230;2023-11-19T04:56:37;1.77;;;1.38;;
83143;SDS011;73035;43.768;2.230;2023-11-19T04:59:02;2.63;;;1.52;;
83143;SDS011;73035;43.768;2.230;2023-11-19T05:01:28;2.78;;;1.67;;
83143;SDS011;73035;43.768;2.230;2023-11-19T05:03:54;8.60;;;2.92;;
83143;SDS011;73035;43.768;2.230;2023-11-19T05:06:19;3.78;;;1.88;;
83143;SDS011;73035;43.768;2.230;2023-11-19T05:08:45;4.50;;;1.30;;
83143;SDS011;73035;43.768;2.230;2023-11-19T05:13:37;2.00;;;1.50;;
83143;SDS011;73035;43.768;2.230;2023-11-19T05:16:03;3.20;;;1.38;;
83143;SDS011;73035;43.768;2.230;2023-11-19T05:18:28;3.55;;;2.00;;
83143;SDS011;73035;43.768;2.230;2023-11-19T05:20:54;3.42;;;1.63;;
83143;SDS011;73035;43.768;2.230;2023-11-19T05:23:19;5.35;;;2.83;;
83143;SDS011;73035;43.768;2.230;2023-11-19T05:25:45;6.90;;;3.13;;
83143;SDS011;73035;43.768;2.230;2023-11-19T05:28:10;5.63;;;2.40;;
83143;SDS011;73035;43.768;2.230;2023-11-19T05:30:36;4.88;;;2.10;;
83143;SDS011;73035;43.768;2.230;2023-11-19T05:33:01;2.90;;;1.60;;
83143;SDS011;73035;43.768;2.230;2023-11-19T05:35:27;6.40;;;2.10;;
83143;SDS011;73035;43.768;2.230;2023-11-19T05:37:52;6.35;;;2.88;;
83143;SDS011;73035;43.768;2.230;2023-11-19T05:40:18;9.70;;;4.38;;
83143;SDS011;73035;43.768;2.230;2023-11-19T05:42:45;13.05;;;5.72;;
83143;SDS011;73035;43.768;2.230;2023-11-19T05:45:11;12.77;;;5.05;;
83143;SDS011;73035;43.768;2.230;2023-11-19T05:47:36;7.07;;;4.55;;
83143;SDS011;73035;43.768;2.230;2023-11-19T05:50:02;16.48;;;8.25;;
83143;SDS011;73035;43.768;2.230;2023-11-19T05:52:29;11.93;;;6.30;;
83143;SDS011;73035;43.768;2.230;2023-11-19T05:54:58;8.82;;;3.08;;
83143;SDS011;73035;43.768;2.230;2023-11-19T05:57:27;4.28;;;1.90;;
83143;SDS011;73035;43.768;2.230;2023-11-19T05:59:54;4.40;;;2.00;;
83143;SDS011;73035;43.768;2.230;2023-11-19T06:02:19;4.72;;;1.80;;
83143;SDS011;73035;43.768;2.230;2023-11-19T06:04:45;3.00;;;1.65;;
83143;SDS011;73035;43.768;2.230;2023-11-19T06:07:12;2.15;;;1.42;;
83143;SDS011;73035;43.768;2.230;2023-11-19T06:09:38;2.90;;;1.40;;
83143;SDS011;73035;43.768;2.230;2023-11-19T06:12:04;3.45;;;1.60;;
83143;SDS011;73035;43.768;2.230;2023-11-19T06:14:31;3.15;;;1.40;;
83143;SDS011;73035;43.768;2.230;2023-11-19T06:16:56;2.33;;;1.60;;
83143;SDS011;73035;43.768;2.230;2023-11-19T06:19:22;3.53;;;1.60;;
83143;SDS011;73035;43.768;2.230;2023-11-19T06:21:49;2.65;;;1.40;;
83143;SDS011;73035;43.768;2.230;2023-11-19T06:24:15;4.43;;;3.00;;
83143;SDS011;73035;43.768;2.230;2023-11-19T06:26:40;11.88;;;6.65;;
83143;SDS011;73035;43.768;2.230;2023-11-19T06:29:05;6.05;;;3.85;;
83143;SDS011;73035;43.768;2.230;2023-11-19T06:31:31;6.05;;;3.55;;
83143;SDS011;73035;43.768;2.230;2023-11-19T06:33:56;7.00;;;3.63;;
83143;SDS011;73035;43.768;2.230;2023-11-19T06:36:21;3.33;;;1.65;;
83143;SDS011;73035;43.768;2.230;2023-11-19T06:38:47;6.00;;;1.73;;
83143;SDS011;73035;43.768;2.230;2023-11-19T06:41:12;3.25;;;1.75;;
83143;SDS011;73035;43.768;2.230;2023-11-19T06:43:37;5.18;;;1.77;;
83143;SDS011;73035;43.768;2.230;2023-11-19T06:46:03;4.15;;;2.05;;
83143;SDS011;73035;43.768;2.230;2023-11-19T06:48:31;7.10;;;2.90;;
83143;SDS011;73035;43.768;2.230;2023-11-19T06:50:57;4.57;;;3.13;;
83143;SDS011;73035;43.768;2.230;2023-11-19T06:53:22;4.47;;;2.55;;
83143;SDS011;73035;43.768;2.230;2023-11-19T06:55:48;7.10;;;2.25;;
83143;SDS011;73035;43.768;2.230;2023-11-19T06:58:13;4.45;;;1.88;;
83143;SDS011;73035;43.768;2.230;2023-11-19T07:00:38;3.75;;;2.40;;
83143;SDS011;73035;43.768;2.230;2023-11-19T07:03:04;4.10;;;2.00;;
83143;SDS011;73035;43.768;2.230;2023-11-19T07:05:35;4.82;;;3.03;;
83143;SDS011;73035;43.768;2.230;2023-11-19T07:08:03;4.40;;;2.35;;
83143;SDS011;73035;43.768;2.230;2023-11-19T07:10:28;2.90;;;2.22;;
83143;SDS011;73035;43.768;2.230;2023-11-19T07:15:20;3.80;;;1.60;;
83143;SDS011;73035;43.768;2.230;2023-11-19T07:17:45;2.42;;;1.30;;
83143;SDS011;73035;43.768;2.230;2023-11-19T07:20:11;2.55;;;1.70;;
83143;SDS011;73035;43.768;2.230;2023-11-19T07:22:41;3.03;;;1.40;;
83143;SDS011;73035;43.768;2.230;2023-11-19T07:25:08;2.80;;;1.45;;
83143;SDS011;73035;43.768;2.230;2023-11-19T07:27:33;3.33;;;1.80;;
83143;SDS011;73035;43.768;2.230;2023-11-19T07:29:59;2.78;;;1.08;;
83143;SDS011;73035;43.768;2.230;2023-11-19T07:32:24;3.42;;;1.42;;
83143;SDS011;73035;43.768;2.230;2023-11-19T07:34:49;2.67;;;1.50;;
83143;SDS011;73035;43.768;2.230;2023-11-19T07:37:15;1.85;;;1.20;;
83143;SDS011;73035;43.768;2.230;2023-11-19T07:39:42;3.13;;;1.25;;
83143;SDS011;73035;43.768;2.230;2023-11-19T07:42:07;2.30;;;1.45;;
83143;SDS011;73035;43.768;2.230;2023-11-19T07:44:34;5.25;;;1.65;;
83143;SDS011;73035;43.768;2.230;2023-11-19T07:46:59;3.05;;;1.20;;
83143;SDS011;73035;43.768;2.230;2023-11-19T07:49:24;2.80;;;1.50;;
83143;SDS011;73035;43.768;2.230;2023-11-19T07:51:50;3.92;;;1.60;;
83143;SDS011;73035;43.768;2.230;2023-11-19T07:54:15;9.30;;;5.72;;
83143;SDS011;73035;43.768;2.230;2023-11-19T07:56:41;10.07;;;6.22;;
83143;SDS011;73035;43.768;2.230;2023-11-19T07:59:06;9.43;;;5.10;;
83143;SDS011;73035;43.768;2.230;2023-11-19T08:01:31;9.45;;;5.68;;
83143;SDS011;73035;43.768;2.230;2023-11-19T08:03:57;8.90;;;5.10;;
83143;SDS011;73035;43.768;2.230;2023-11-19T08:06:23;6.95;;;3.80;;
83143;SDS011;73035;43.768;2.230;2023-11-19T08:08:48;6.60;;;4.20;;
83143;SDS011;73035;43.768;2.230;2023-11-19T08:11:13;4.43;;;2.88;;
83143;SDS011;73035;43.768;2.230;2023-11-19T08:13:40;5.30;;;2.80;;
83143;SDS011;73035;43.768;2.230;2023-11-19T08:16:05;5.45;;;3.30;;
83143;SDS011;73035;43.768;2.230;2023-11-19T08:18:31;3.72;;;1.90;;
83143;SDS011;73035;43.768;2.230;2023-11-19T08:20:56;3.83;;;1.70;;
83143;SDS011;73035;43.768;2.230;2023-11-19T08:23:23;2.75;;;1.55;;
83143;SDS011;73035;43.768;2.230;2023-11-19T08:25:50;3.55;;;1.83;;
83143;SDS011;73035;43.768;2.230;2023-11-19T08:28:16;3.50;;;1.95;;
83143;SDS011;73035;43.768;2.230;2023-11-19T08:30:41;2.78;;;1.70;;
83143;SDS011;73035;43.768;2.230;2023-11-19T08:33:09;2.33;;;1.63;;
83143;SDS011;73035;43.768;2.230;2023-11-19T08:35:34;1.98;;;1.33;;
83143;SDS011;73035;43.768;2.230;2023-11-19T08:37:59;6.45;;;1.80;;
83143;SDS011;73035;43.768;2.230;2023-11-19T08:40:25;2.60;;;1.17;;
83143;SDS011;73035;43.768;2.230;2023-11-19T08:42:54;2.35;;;1.30;;
83143;SDS011;73035;43.768;2.230;2023-11-19T08:45:20;3.63;;;1.88;;
83143;SDS011;73035;43.768;2.230;2023-11-19T08:47:46;3.45;;;1.63;;
83143;SDS011;73035;43.768;2.230;2023-11-19T08:52:36;10.70;;;6.23;;
83143;SDS011;73035;43.768;2.230;2023-11-19T08:57:28;11.93;;;7.65;;
83143;SDS011;73035;43.768;2.230;2023-11-19T08:59:53;8.48;;;4.63;;
83143;SDS011;73035;43.768;2.230;2023-11-19T09:02:18;7.28;;;4.93;;
83143;SDS011;73035;43.768;2.230;2023-11-19T09:04:44;5.57;;;3.85;;
83143;SDS011;73035;43.768;2.230;2023-11-19T09:07:09;6.03;;;3.53;;
83143;SDS011;73035;43.768;2.230;2023-11-19T09:09:35;7.07;;;4.72;;
83143;SDS011;73035;43.768;2.230;2023-11-19T09:12:01;5.65;;;2.78;;
83143;SDS011;73035;43.768;2.230;2023-11-19T09:14:28;4.15;;;2.35;;
83143;SDS011;73035;43.768;2.230;2023-11-19T09:16:54;3.67;;;2.67;;
83143;SDS011;73035;43.768;2.230;2023-11-19T09:19:21;6.30;;;2.35;;
83143;SDS011;73035;43.768;2.230;2023-11-19T09:21:46;3.95;;;2.17;;
83143;SDS011;73035;43.768;2.230;2023-11-19T09:24:14;5.03;;;2.15;;
83143;SDS011;73035;43.768;2.230;2023-11-19T09:26:40;6.07;;;1.83;;
83143;SDS011;73035;43.768;2.230;2023-11-19T09:29:06;2.40;;;1.63;;
83143;SDS011;73035;43.768;2.230;2023-11-19T09:31:32;2.85;;;1.55;;
83143;SDS011;73035;43.768;2.230;2023-11-19T09:33:58;7.95;;;1.92;;
83143;SDS011;73035;43.768;2.230;2023-11-19T09:36:23;3.22;;;1.80;;
83143;SDS011;73035;43.768;2.230;2023-11-19T09:38:48;3.45;;;1.63;;
83143;SDS011;73035;43.768;2.230;2023-11-19T09:41:14;4.38;;;1.50;;
83143;SDS011;73035;43.768;2.230;2023-11-19T09:43:39;2.92;;;1.88;;
83143;SDS011;73035;43.768;2.230;2023-11-19T09:46:06;3.28;;;1.65;;
83143;SDS011;73035;43.768;2.230;2023-11-19T09:48:35;3.17;;;1.70;;
83143;SDS011;73035;43.768;2.230;2023-11-19T09:51:05;3.28;;;1.83;;
83143;SDS011;73035;43.768;2.230;2023-11-19T09:53:31;3.15;;;1.80;;
83143;SDS011;73035;43.768;2.230;2023-11-19T09:55:58;3.97;;;1.98;;
83143;SDS011;73035;43.768;2.230;2023-11-19T09:58:25;3.05;;;1.48;;
83143;SDS011;73035;43.768;2.230;2023-11-19T10:00:51;3.35;;;1.73;;
83143;SDS011;73035;43.768;2.230;2023-11-19T10:03:17;3.25;;;1.33;;
83143;SDS011;73035;43.768;2.230;2023-11-19T10:05:42;4.30;;;3.33;;
83143;SDS011;73035;43.768;2.230;2023-11-19T10:08:08;2.80;;;1.63;;
83143;SDS011;73035;43.768;2.230;2023-11-19T10:10:33;3.20;;;1.50;;
83143;SDS011;73035;43.768;2.230;2023-11-19T10:12:59;2.70;;;1.63;;
83143;SDS011;73035;43.768;2.230;2023-11-19T10:15:26;3.53;;;1.48;;
83143;SDS011;73035;43.768;2.230;2023-11-19T10:17:52;3.08;;;1.80;;
83143;SDS011;73035;43.768;2.230;2023-11-19T10:20:21;4.30;;;1.80;;
83143;SDS011;73035;43.768;2.230;2023-11-19T10:22:47;3.20;;;2.00;;
83143;SDS011;73035;43.768;2.230;2023-11-19T10:25:22;2.88;;;1.85;;
83143;SDS011;73035;43.768;2.230;2023-11-19T10:27:48;4.13;;;2.50;;
83143;SDS011;73035;43.768;2.230;2023-11-19T10:30:17;4.38;;;2.08;;
83143;SDS011;73035;43.768;2.230;2023-11-19T10:32:50;4.43;;;2.13;;
83143;SDS011;73035;43.768;2.230;2023-11-19T10:35:27;4.25;;;1.95;;
83143;SDS011;73035;43.768;2.230;2023-11-19T10:37:53;2.92;;;1.88;;
83143;SDS011;73035;43.768;2.230;2023-11-19T10:40:18;5.47;;;2.60;;
83143;SDS011;73035;43.768;2.230;2023-11-19T10:42:43;4.22;;;2.13;;
83143;SDS011;73035;43.768;2.230;2023-11-19T10:45:22;4.63;;;2.15;;
83143;SDS011;73035;43.768;2.230;2023-11-19T10:47:49;3.00;;;1.92;;
83143;SDS011;73035;43.768;2.230;2023-11-19T10:50:16;3.95;;;2.13;;
83143;SDS011;73035;43.768;2.230;2023-11-19T10:52:41;3.33;;;2.17;;
83143;SDS011;73035;43.768;2.230;2023-11-19T10:55:08;4.28;;;2.15;;
83143;SDS011;73035;43.768;2.230;2023-11-19T10:57:36;4.53;;;2.55;;
83143;SDS011;73035;43.768;2.230;2023-11-19T11:00:02;2.78;;;1.80;;
83143;SDS011;73035;43.768;2.230;2023-11-19T11:02:35;3.83;;;2.30;;
83143;SDS011;73035;43.768;2.230;2023-11-19T11:05:07;3.28;;;2.08;;
83143;SDS011;73035;43.768;2.230;2023-11-19T11:07:33;3.08;;;2.08;;
83143;SDS011;73035;43.768;2.230;2023-11-19T11:09:59;4.43;;;2.10;;
83143;SDS011;73035;43.768;2.230;2023-11-19T11:12:25;3.28;;;2.05;;
83143;SDS011;73035;43.768;2.230;2023-11-19T11:14:51;2.85;;;1.88;;
83143;SDS011;73035;43.768;2.230;2023-11-19T11:17:18;4.78;;;2.08;;
83143;SDS011;73035;43.768;2.230;2023-11-19T11:19:44;3.65;;;1.75;;
83143;SDS011;73035;43.768;2.230;2023-11-19T11:22:10;4.22;;;1.88;;
83143;SDS011;73035;43.768;2.230;2023-11-19T11:24:59;2.72;;;1.90;;
83143;SDS011;73035;43.768;2.230;2023-11-19T11:30:38;3.40;;;1.60;;
83143;SDS011;73035;43.768;2.230;2023-11-19T11:36:19;2.85;;;1.83;;
83143;SDS011;73035;43.768;2.230;2023-11-19T11:38:48;2.38;;;1.38;;
83143;SDS011;73035;43.768;2.230;2023-11-19T11:41:15;2.33;;;1.50;;
83143;SDS011;73035;43.768;2.230;2023-11-19T11:43:53;2.38;;;1.65;;
83143;SDS011;73035;43.768;2.230;2023-11-19T11:49:07;4.40;;;2.20;;
83143;SDS011;73035;43.768;2.230;2023-11-19T11:54:10;6.47;;;1.80;;
83143;SDS011;73035;43.768;2.230;2023-11-19T11:56:37;2.88;;;1.67;;
83143;SDS011;73035;43.768;2.230;2023-11-19T11:59:03;3.45;;;1.83;;
83143;SDS011;73035;43.768;2.230;2023-11-19T12:01:28;3.20;;;1.67;;
83143;SDS011;73035;43.768;2.230;2023-11-19T12:03:55;2.80;;;1.65;;
83143;SDS011;73035;43.768;2.230;2023-11-19T12:06:21;2.60;;;2.05;;
83143;SDS011;73035;43.768;2.230;2023-11-19T12:08:47;3.67;;;1.88;;
83143;SDS011;73035;43.768;2.230;2023-11-19T12:11:12;4.43;;;1.70;;
83143;SDS011;73035;43.768;2.230;2023-11-19T12:13:47;3.78;;;1.90;;
83143;SDS011;73035;43.768;2.230;2023-11-19T12:16:19;3.40;;;1.90;;
83143;SDS011;73035;43.768;2.230;2023-11-19T12:18:46;2.50;;;1.40;;
83143;SDS011;73035;43.768;2.230;2023-11-19T12:21:12;2.65;;;1.80;;
83143;SDS011;73035;43.768;2.230;2023-11-19T12:23:52;2.63;;;1.75;;
83143;SDS011;73035;43.768;2.230;2023-11-19T12:26:37;4.22;;;2.00;;
83143;SDS011;73035;43.768;2.230;2023-11-19T12:29:03;3.35;;;1.80;;
83143;SDS011;73035;43.768;2.230;2023-11-19T12:31:29;5.40;;;1.50;;
83143;SDS011;73035;43.768;2.230;2023-11-19T12:33:54;3.42;;;1.73;;
83143;SDS011;73035;43.768;2.230;2023-11-19T12:36:20;2.75;;;1.80;;
83143;SDS011;73035;43.768;2.230;2023-11-19T12:38:46;4.45;;;1.88;;
83143;SDS011;73035;43.768;2.230;2023-11-19T12:41:11;2.42;;;1.58;;
83143;SDS011;73035;43.768;2.230;2023-11-19T12:43:37;3.80;;;1.90;;
83143;SDS011;73035;43.768;2.230;2023-11-19T12:46:03;3.10;;;1.77;;
83143;SDS011;73035;43.768;2.230;2023-11-19T12:48:42;3.17;;;1.80;;
83143;SDS011;73035;43.768;2.230;2023-11-19T12:51:07;4.05;;;1.98;;
83143;SDS011;73035;43.768;2.230;2023-11-19T12:53:46;3.75;;;1.60;;
83143;SDS011;73035;43.768;2.230;2023-11-19T12:56:22;2.72;;;1.60;;
83143;SDS011;73035;43.768;2.230;2023-11-19T12:58:48;3.10;;;1.67;;
83143;SDS011;73035;43.768;2.230;2023-11-19T13:01:17;2.78;;;1.48;;
83143;SDS011;73035;43.768;2.230;2023-11-19T13:03:44;5.90;;;1.60;;
83143;SDS011;73035;43.768;2.230;2023-11-19T13:06:10;2.83;;;1.85;;
83143;SDS011;73035;43.768;2.230;2023-11-19T13:08:37;2.28;;;1.60;;
83143;SDS011;73035;43.768;2.230;2023-11-19T13:11:06;3.22;;;1.67;;
83143;SDS011;73035;43.768;2.230;2023-11-19T13:13:54;5.45;;;1.90;;
83143;SDS011;73035;43.768;2.230;2023-11-19T13:16:24;6.00;;;2.03;;
83143;SDS011;73035;43.768;2.230;2023-11-19T13:18:50;2.88;;;1.60;;
83143;SDS011;73035;43.768;2.230;2023-11-19T13:21:16;2.83;;;1.98;;
83143;SDS011;73035;43.768;2.230;2023-11-19T13:23:41;2.72;;;1.70;;
83143;SDS011;73035;43.768;2.230;2023-11-19T13:26:08;3.83;;;1.65;;
83143;SDS011;73035;43.768;2.230;2023-11-19T13:28:33;2.47;;;1.38;;
83143;SDS011;73035;43.768;2.230;2023-11-19T13:30:59;3.67;;;1.75;;
83143;SDS011;73035;43.768;2.230;2023-11-19T13:33:24;15.07;;;3.67;;
83143;SDS011;73035;43.768;2.230;2023-11-19T13:35:49;7.63;;;2.00;;
83143;SDS011;73035;43.768;2.230;2023-11-19T13:38:15;12.15;;;3.28;;
83143;SDS011;73035;43.768;2.230;2023-11-19T13:40:40;54.85;;;7.50;;
83143;SDS011;73035;43.768;2.230;2023-11-19T13:43:06;67.07;;;10.40;;
83143;SDS011;73035;43.768;2.230;2023-11-19T13:45:32;149.75;;;22.48;;
83143;SDS011;73035;43.768;2.230;2023-11-19T13:47:57;169.57;;;21.50;;
83143;SDS011;73035;43.768;2.230;2023-11-19T13:50:23;34.47;;;5.03;;
83143;SDS011;73035;43.768;2.230;2023-11-19T13:52:48;13.30;;;2.25;;
83143;SDS011;73035;43.768;2.230;2023-11-19T13:55:14;7.95;;;1.95;;
83143;SDS011;73035;43.768;2.230;2023-11-19T13:57:40;10.82;;;2.28;;
83143;SDS011;73035;43.768;2.230;2023-11-19T14:00:06;20.17;;;4.63;;
83143;SDS011;73035;43.768;2.230;2023-11-19T14:02:41;7.10;;;2.47;;
83143;SDS011;73035;43.768;2.230;2023-11-19T14:05:07;8.38;;;1.92;;
83143;SDS011;73035;43.768;2.230;2023-11-19T14:07:33;48.83;;;5.75;;
83143;SDS011;73035;43.768;2.230;2023-11-19T14:09:58;20.60;;;2.95;;
83143;SDS011;73035;43.768;2.230;2023-11-19T14:12:24;5.30;;;1.88;;
83143;SDS011;73035;43.768;2.230;2023-11-19T14:14:49;4.10;;;1.73;;
83143;SDS011;73035;43.768;2.230;2023-11-19T14:17:14;5.50;;;2.00;;
83143;SDS011;73035;43.768;2.230;2023-11-19T14:19:41;5.60;;;1.75;;
83143;SDS011;73035;43.768;2.230;2023-11-19T14:22:07;10.35;;;2.30;;
83143;SDS011;73035;43.768;2.230;2023-11-19T14:24:33;6.70;;;1.83;;
83143;SDS011;73035;43.768;2.230;2023-11-19T14:26:59;3.20;;;1.80;;
83143;SDS011;73035;43.768;2.230;2023-11-19T14:29:24;6.05;;;2.08;;
83143;SDS011;73035;43.768;2.230;2023-11-19T14:31:56;3.72;;;2.10;;
83143;SDS011;73035;43.768;2.230;2023-11-19T14:34:22;3.92;;;1.50;;
83143;SDS011;73035;43.768;2.230;2023-11-19T14:36:47;4.10;;;1.67;;
83143;SDS011;73035;43.768;2.230;2023-11-19T14:39:14;4.57;;;2.83;;
83143;SDS011;73035;43.768;2.230;2023-11-19T14:41:39;3.92;;;2.20;;
83143;SDS011;73035;43.768;2.230;2023-11-19T14:44:05;64.18;;;11.07;;
83143;SDS011;73035;43.768;2.230;2023-11-19T14:46:30;51.15;;;10.80;;
83143;SDS011;73035;43.768;2.230;2023-11-19T14:48:56;4.85;;;2.85;;
83143;SDS011;73035;43.768;2.230;2023-11-19T14:51:21;4.90;;;1.98;;
83143;SDS011;73035;43.768;2.230;2023-11-19T14:53:47;5.57;;;2.15;;
83143;SDS011;73035;43.768;2.230;2023-11-19T14:56:12;4.07;;;2.50;;
83143;SDS011;73035;43.768;2.230;2023-11-19T14:58:38;3.08;;;2.03;;
83143;SDS011;73035;43.768;2.230;2023-11-19T15:01:04;4.63;;;2.33;;
83143;SDS011;73035;43.768;2.230;2023-11-19T15:03:29;3.78;;;2.38;;
83143;SDS011;73035;43.768;2.230;2023-11-19T15:05:55;3.92;;;2.28;;
83143;SDS011;73035;43.768;2.230;2023-11-19T15:08:21;5.57;;;2.08;;
83143;SDS011;73035;43.768;2.230;2023-11-19T15:10:46;6.40;;;2.67;;
83143;SDS011;73035;43.768;2.230;2023-11-19T15:13:12;6.07;;;3.47;;
83143;SDS011;73035;43.768;2.230;2023-11-19T15:15:37;6.38;;;2.58;;